Pagina principale
METAR-TAF:

METAR-TAF

Aeroporti :

Grenchen, Svizzera

latitudine: 47-10-53N, longitudine: 007-24-59E, altezza: 430 m

Osservazione

Il bollettino è stato emesso 5 minuti fa, alle 15:50 UTC
Vento 4 kt da ovest/sud-ovest
Temperature 4°C
Umidità 75%
Pressione 1022 hPa
Visibilità 10 km o più
Poco nuvoloso ad un'altezza di 2800 ft
Nuvoloso ad un'altezza di 4800 ft

METAR: LSZG 191550Z 25004KT 9999 FEW028 BKN048 04/00 Q1022 NOSIG

Ora: 16:55 (15:55 UTC)

Previsione

Il bollettino è stato emesso 1 ora e 30 minuti fa, alle 14:25 UTC
Previsione valida dal 19 alle 15 UTC al 19 alle 24 UTC
Vento 8 kt da ovest
Visibilità 10 km o più
Nubi sparse ad un'altezza di 2200 ft
Nuvoloso ad un'altezza di 4600 ft
rovesci nelle vicinanze
Probabilità 30%
dal 19 alle 22 UTC al 19 alle 24 UTC
Visibilità: 4500 m
Nebbia poco profondo

TAF: LSZG 191425Z 1915/1924 26008KT 9999 VCSH SCT022 BKN046 PROB30 1922/1924 4500 MIFG

Osservazioni e previsioni meteorologiche di più di 4000 aeroporti (messaggi METAR e TAF).

Le stazioni disponibili sono rappresentate dai dischi gialli e rossi sulla carta.

Puntare il mouse per vedere il nome della stazione.

Clicca sopra per visualizzare le osservazioni e previsioni meteorologiche.

Per cambiare la mappa : fare clic sui pulsanti verdi con una croce nera per ingrandire, il pulsante verde con un trattino per diminuire, o sulla freccia verde per le mappe adiacenti.


METAR-TAF: